Tiempo atmosférico en la estación meteorológica de Ibias, San Antolin, Asturias (762 m.)



Fecha
DESCASC
Temp. máxima en grados centígrados (hora)
DESCASC
Temp. mínima en grados centígrados (hora)
DESCASC
Temp. media en grados centígrados
DESCASC
Racha de viento máxima en m/sg (hora)
DESCASC
Velocidad máxima media en intervalos de 10 minutos(hora)
DESCASC
Precipitaciones diarias en mm
DESCASC
Precipitaciones de 00:00 a 06:00 en mm
DESCASC
Precipitaciones de 06:00 a 12:00 en mm
DESCASC
Precipitaciones de 12:00 a 18:00 en mm
DESCASC
Precipitaciones de 18:00 a 24:00 en mm
DESCASC
16-01-2020 13.2 (13:10) 5.7 (19:10) 9.4 22.5 (13:10) 14.44 (13:10) 11 0 0.2 0.2 10.6
15-01-2020 12 (22:20) 6.4 (09:20) 9.2 23.06 (05:10) 12.22 (00:30) 9.4 0.4 9 0 0
14-01-2020 10.9 (15:30) 8.8 (04:10) 9.8 20.83 (23:30) 13.06 (12:50) 0 0 0 0 0
13-01-2020 13.3 (14:40) 4.3 (08:00) 8.8 17.5 (21:50) 10.28 (20:50) 0 0 0 0 0
12-01-2020 12.5 (16:50) 2 (00:00) 7.3 4.72 (15:10) 3.06 (19:30) 0 0 0 0 0
11-01-2020 10.9 (15:50) 1.2 (00:00) 6 4.44 (05:30) 3.33 (16:20) 0 0 0 0 0
10-01-2020 7.5 (15:20) 2.3 (00:00) 4.9 9.17 (00:30) 5.83 (00:50) 1.2 0.8 0.4 0 0
09-01-2020 13.2 (12:30) 4 (00:00) 8.6 25 (14:40) 15 (13:40) 3 0 0 2.4 0.6
08-01-2020 15.7 (15:50) 6.4 (00:00) 11 6.39 (23:20) 4.72 (18:50) 0 0 0 0 0
07-01-2020 15.5 (16:00) 2.7 (00:00) 9.1 4.44 (14:40) 3.61 (18:40) 0 0 0 0 0
06-01-2020 10.5 (16:20) 2.5 (00:00) 6.5 5.83 (13:40) 4.44 (07:00) 0 0 0 0 0
05-01-2020 11.4 (16:00) -2.5 (-00:0) 4.4 3.89 (09:50) 3.06 (09:50) 0 0 0 0 0
04-01-2020 8.4 (16:30) 0.5 (00:00) 4.4 3.33 (15:00) 2.5 (21:40) 0 0 0 0 0
03-01-2020 -- (--) -- (--) -- -- (--) -- (--) -- -- -- -- 0
02-01-2020 -- (--) -- (--) -- -- (--) -- (--) -- 0 0 -- --
01-01-2020 14.8 (15:10) 2.3 (00:00) 8.6 3.89 (17:30) 3.06 (17:30) 0 0 0 0 0
31-12-2019 13.3 (15:30) 4.1 (00:00) 8.7 4.17 (01:20) 2.78 (09:30) 0 0 0 0 0
30-12-2019 -- (--) -- (--) -- -- (--) -- (--) -- 0 0 -- 0
29-12-2019 18.5 (17:10) 8.2 (00:00) 13.3 3.33 (09:00) 2.22 (13:30) 0 0 0 0 0
28-12-2019 17.2 (16:30) 5.8 (00:00) 11.5 5.83 (04:00) 4.17 (05:00) 0 0 0 0 0
27-12-2019 13.2 (15:20) 1.4 (00:00) 7.3 3.61 (13:00) 2.5 (12:50) 0 0 0 0 0
26-12-2019 11.4 (15:50) 3.6 (00:00) 7.5 16.94 (00:20) 11.11 (00:20) 0 0 0 0 0
25-12-2019 16.8 (16:00) 9.1 (00:00) 12.9 16.67 (21:00) 10.28 (22:30) 0 0 0 0 0
24-12-2019 16.6 (16:10) 11.5 (00:00) 14.1 14.44 (01:40) 10 (05:20) 0 0 0 0 0
23-12-2019 12.9 (23:59) 5.5 (00:00) 9.2 16.67 (10:20) 10.83 (11:50) 1 0 0 0.6 0.4
22-12-2019 9.6 (11:30) 5.8 (00:00) 7.7 29.44 (12:10) 15.83 (11:30) 15.4 8.2 3.8 2.8 0.6
21-12-2019 13.1 (08:30) 6.5 (00:00) 9.8 35.56 (13:30) 18.61 (15:40) 25 0.2 7.2 9.4 8.2
20-12-2019 7.8 (17:50) 3.4 (00:00) 5.6 20.28 (18:50) 11.39 (04:40) 22.8 8.8 0.6 11.6 1.8
19-12-2019 11.5 (01:10) 6.2 (23:59) 8.8 31.11 (05:10) 19.44 (05:10) 25.6 3.8 4.2 3.4 14.2

Gráficas

Temp. máximas Temp. mínimas Temp. medias Precipitaciones Rachas de viento máximas Velocidades máximas media en intervalos de 10 minutos

Datos horarios

Fecha y hora oficial Temperatura (ºC) Velocidad del viento (km/h) Dirección del viento Racha (km/h) Dirección de racha Precipitación (mm) Presión (hPa) Tendencia (hPa) Humedad (%)
2020-01-17 23:00:00 4.3 8 Noroeste 15 Oeste 0 -- -- 73
2020-01-17 22:00:00 4.7 8 Este 12 Este 0 -- -- 69
2020-01-17 21:00:00 4.6 5 Este 13 Sudeste 0 -- -- 76
2020-01-17 20:00:00 4.9 10 Sur 19 Sur 0 -- -- 71
2020-01-17 19:00:00 4.5 8 Sur 11 Sur 0 -- -- 84
2020-01-17 18:00:00 4.9 9 Sur 13 Sur 0 -- -- 83
2020-01-17 17:00:00 5.3 11 Sudoeste 24 Sudoeste 0 -- -- 81
2020-01-17 16:00:00 5.2 10 Sudoeste 23 Sudoeste 0 -- -- 82
2020-01-17 15:00:00 6 7 Oeste 36 Oeste 0 -- -- 79
2020-01-17 14:00:00 5.1 19 Sudoeste 39 Sudoeste 0 -- -- 85
2020-01-17 13:00:00 5.8 14 Sudoeste 36 Sudoeste 0 -- -- 75
2020-01-17 12:00:00 5.4 25 Sudoeste 35 Sudoeste 0 -- -- 79
2020-01-17 11:00:00 4.5 17 Sudoeste 41 Sudoeste 0 -- -- 86
2020-01-17 10:00:00 3.8 22 Sudoeste 37 Sudoeste 0 -- -- 88
2020-01-17 09:00:00 3.5 20 Oeste 45 Oeste 0 -- -- 92
2020-01-17 08:00:00 4 21 Sudoeste 44 Sudoeste 0 -- -- 89
2020-01-17 07:00:00 4.5 17 Sudoeste 39 Oeste 0 -- -- 90
2020-01-17 06:00:00 4.5 24 Sudoeste 48 Sudoeste 0 -- -- 91
2020-01-17 05:00:00 4.8 25 Sudoeste 41 Sur 0 -- -- 91
2020-01-17 04:00:00 5 26 Sudoeste 51 Sudoeste 2 -- -- 91
2020-01-17 03:00:00 6 30 Sudoeste 47 Sudoeste 0 -- -- 86
2020-01-17 02:00:00 6.2 27 Sudoeste 42 Sudoeste 0 -- -- 88
2020-01-17 01:00:00 6 22 Sudoeste 51 Sudoeste 0.4 -- -- 90
2020-01-17 00:00:00 6.7 28 Sudoeste 49 Sur 0 -- -- 86
2020-01-16 23:00:00 6.3 26 Sudoeste 47 Sudoeste 0 -- -- 90
2020-01-16 22:00:00 6.4 31 Sudoeste 48 Sudoeste 0.2 -- -- 91
2020-01-16 21:00:00 6.5 15 Sudoeste 39 Sudoeste 1.2 -- -- 94
2020-01-16 20:00:00 6 16 Sudoeste 40 Oeste 3.8 -- -- 94
2020-01-16 19:00:00 6 32 Oeste 63 Sudoeste 5.4 -- -- 92
2020-01-16 18:00:00 9.5 23 Sur 56 Sur 0.2 -- -- 77
2020-01-16 17:00:00 10.3 30 Sur 60 Sudeste 0 -- -- 71
2020-01-16 16:00:00 11.8 38 Sur 69 Sur 0 -- -- 62
2020-01-16 15:00:00 12 37 Sur 71 Sur 0 -- -- 63
2020-01-16 14:00:00 12.6 41 Sur 81 Sur 0 -- -- 62
2020-01-16 13:00:00 13.1 40 Sur 74 Sudeste 0 -- -- 59
2020-01-16 12:00:00 12.8 44 Sur 74 Sur 0 -- -- 63
2020-01-16 11:00:00 12.4 40 Sur 64 Sur 0 -- -- 65
2020-01-16 10:00:00 12.6 31 Sur 77 Sur 0 -- -- 58
2020-01-16 09:00:00 12.1 47 Sur 77 Sur 0.2 -- -- 64
2020-01-16 08:00:00 12.2 35 Sur 68 Sur 0 -- -- 66
2020-01-16 07:00:00 12.5 36 Sur 72 Sur 0 -- -- 67
2020-01-16 06:00:00 12 27 Sur 49 Sudeste 0 -- -- 71
2020-01-16 05:00:00 12.4 27 Sur 54 Sur 0 -- -- 65
2020-01-16 04:00:00 12.4 33 Sur 59 Sur 0 -- -- 60
2020-01-16 03:00:00 12.1 28 Sur 59 Sur 0 -- -- 59
2020-01-16 02:00:00 12.3 35 Sur 58 Sur 0 -- -- 59
2020-01-16 01:00:00 12.3 29 Sur 48 Sur 0 -- -- 65
2020-01-16 00:00:00 11.5 31 Sur 52 Sur 0 -- -- 65
2020-01-15 23:00:00 11.4 27 Sur 48 Sudoeste 0 -- -- 66
2020-01-15 22:00:00 11.3 18 Sur 43 Sur 0 -- -- 64
2020-01-15 21:00:00 10.7 13 Sur 33 Sur 0 -- -- 62
2020-01-15 20:00:00 9.1 9 Sudeste 25 Sudoeste 0 -- -- 58
2020-01-15 19:00:00 9.6 17 Sur 37 Sur 0 -- -- 57
2020-01-15 18:00:00 10.1 20 Sudoeste 33 Sudoeste 0 -- -- 63
2020-01-15 17:00:00 11.3 15 Sur 47 Sudoeste 0 -- -- 65
2020-01-15 16:00:00 11.6 19 Sudoeste 39 Sudoeste 0 -- -- 65
2020-01-15 15:00:00 10.1 22 Sudoeste 36 Sur 0 -- -- 75
2020-01-15 14:00:00 9.8 12 Sudoeste 27 Sudoeste 0 -- -- 87
2020-01-15 13:00:00 7.9 18 Sudoeste 31 Sudoeste 0 -- -- 96
2020-01-15 12:00:00 7.7 8 Sudoeste 24 Sudoeste 0 -- -- 97
2020-01-15 11:00:00 7 12 Sudoeste 26 Sudoeste 0.2 -- -- 96
2020-01-15 10:00:00 6.8 21 Sudoeste 40 Sur 0 -- -- 93
2020-01-15 09:00:00 6.7 21 Sur 74 Sudoeste 6.2 -- -- 92
2020-01-15 08:00:00 8.3 40 Sudoeste 69 Oeste 1.4 -- -- 86
2020-01-15 07:00:00 8.5 21 Sur 69 Sur 1.2 -- -- 84
2020-01-15 06:00:00 9.5 25 Sudoeste 83 Sur 0.4 -- -- 79
2020-01-15 05:00:00 11.3 43 Sur 77 Sur 0 -- -- 60
2020-01-15 04:00:00 10.4 35 Sur 67 Sur 0 -- -- 67
2020-01-15 03:00:00 10.3 38 Sur 78 Sur 0 -- -- 70
2020-01-15 02:00:00 10.1 38 Sur 81 Sur 0 -- -- 70
2020-01-15 01:00:00 9.8 36 Sur 66 Sur 0 -- -- 72
2020-01-15 00:00:00 10.5 34 Sur 75 Sur 0 -- -- 64
2020-01-14 23:00:00 10.1 39 Sur 66 Sur 0 -- -- 62
2020-01-14 22:00:00 9.7 35 Sur 64 Sudeste 0 -- -- 64
2020-01-14 21:00:00 10 39 Sur 68 Sur 0 -- -- 63
2020-01-14 20:00:00 10.2 35 Sur 64 Sudeste 0 -- -- 60
2020-01-14 19:00:00 9.9 33 Sur 67 Sur 0 -- -- 59
2020-01-14 18:00:00 9.7 40 Sur 63 Sur 0 -- -- 67
2020-01-14 17:00:00 10.2 39 Sur 69 Sur 0 -- -- 66
2020-01-14 16:00:00 10.8 31 Sur 68 Sur 0 -- -- 59
2020-01-14 15:00:00 10.7 41 Sur 71 Sudeste 0 -- -- 57
2020-01-14 14:00:00 10.2 40 Sur 73 Sur 0 -- -- 58
2020-01-14 13:00:00 9.7 45 Sur 74 Sudeste 0 -- -- 61
2020-01-14 12:00:00 10.2 28 Sudoeste 60 Sur 0 -- -- 60
2020-01-14 11:00:00 9.8 32 Sur 64 Sudoeste 0 -- -- 62
2020-01-14 10:00:00 8.9 36 Sur 60 Sur 0 -- -- 67
2020-01-14 09:00:00 8.8 26 Sur 51 Sur 0 -- -- 70
2020-01-14 08:00:00 9.1 24 Sur 51 Sudoeste 0 -- -- 69
2020-01-14 07:00:00 9 23 Sur 54 Sudoeste 0 -- -- 70
2020-01-14 06:00:00 9.2 32 Sudoeste 65 Sudoeste 0 -- -- 69
2020-01-14 05:00:00 9 26 Sur 60 Sur 0 -- -- 68
2020-01-14 04:00:00 8.9 26 Sur 54 Sur 0 -- -- 69
2020-01-14 03:00:00 9 15 Sur 72 Sudoeste 0 -- -- 69
2020-01-14 02:00:00 9.3 23 Sur 49 Sudoeste 0 -- -- 67
2020-01-14 01:00:00 9 26 Sur 59 Sudoeste 0 -- -- 67
2020-01-14 00:00:00 9 26 Sur 56 Sur 0 -- -- 66
2020-01-13 23:00:00 8.8 31 Sur 51 Sudoeste 0 -- -- 67
2020-01-13 22:00:00 8.8 22 Sudoeste 63 Sudoeste 0 -- -- 68
2020-01-13 21:00:00 8.6 33 Sudoeste 59 Sudoeste 0 -- -- 67
2020-01-13 20:00:00 8.9 18 Sudoeste 56 Sudoeste 0 -- -- 63
2020-01-13 19:00:00 9.8 30 Sudoeste 54 Sudoeste 0 -- -- 59
2020-01-13 18:00:00 10.1 29 Sudoeste 50 Sudoeste 0 -- -- 54
2020-01-13 17:00:00 11.1 22 Sudoeste 48 Sudeste 0 -- -- 48
2020-01-13 16:00:00 11.1 22 Sur 57 Sudoeste 0 -- -- 45
2020-01-13 15:00:00 12.4 29 Sudoeste 50 Sudoeste 0 -- -- 42
2020-01-13 14:00:00 12.2 21 Sudoeste 50 Sudoeste 0 -- -- 45
2020-01-13 13:00:00 11.5 18 Sudoeste 42 Sudoeste 0 -- -- 56
2020-01-13 12:00:00 9.7 13 Sudeste 26 Sur 0 -- -- 58
2020-01-13 11:00:00 8.5 12 Sur 28 Sudeste 0 -- -- 71
2020-01-13 10:00:00 5.5 12 Oeste 15 Oeste 0 -- -- 80
2020-01-13 09:00:00 5.5 2 Oeste 21 Sudoeste 0 -- -- 82
2020-01-13 08:00:00 4.3 7 Oeste 14 Noroeste 0 -- -- 81
2020-01-13 07:00:00 5.7 0 Calma 14 Noroeste 0 -- -- 78
2020-01-13 06:00:00 6.4 3 Nordeste 13 Noroeste 0 -- -- 74
2020-01-13 05:00:00 5.9 6 Noroeste 17 Este 0 -- -- 75
2020-01-13 04:00:00 5.7 3 Oeste 12 Sudeste 0 -- -- 75
2020-01-13 03:00:00 6.6 5 Este 7 Este 0 -- -- 68
2020-01-13 02:00:00 6.9 0 Calma 13 Sudeste 0 -- -- 74
2020-01-13 01:00:00 6.7 10 Sudeste 13 Sudeste 0 -- -- 69
2020-01-13 00:00:00 6.9 0 Calma 9 Este 0 -- -- 76
2020-01-12 23:00:00 6.6 4 Este 10 Sudoeste 0 -- -- 73
2020-01-12 22:00:00 7.3 5 Oeste 10 Oeste 0 -- -- 74
2020-01-12 21:00:00 7.3 4 Este 6 Este 0 -- -- 60
2020-01-12 20:00:00 7.5 0 Calma 13 Oeste 0 -- -- 68
2020-01-12 19:00:00 8.8 4 Este 9 Este 0 -- -- 59
2020-01-12 18:00:00 10.2 0 Calma 9 Oeste 0 -- -- 58
2020-01-12 17:00:00 12.4 5 Oeste 11 Oeste 0 -- -- 55
2020-01-12 16:00:00 12.3 6 Sudoeste 17 Oeste 0 -- -- 52
2020-01-12 15:00:00 11.5 7 Sudoeste 14 Oeste 0 -- -- 50
2020-01-12 14:00:00 10.4 8 Sudoeste 14 Oeste 0 -- -- 50
2020-01-12 13:00:00 9 5 Sudoeste 13 Sudoeste 0 -- -- 56
2020-01-12 12:00:00 6.9 8 Oeste 11 Oeste 0 -- -- 63
2020-01-12 11:00:00 5.2 4 Sudoeste 9 Sudoeste 0 -- -- 71
2020-01-12 10:00:00 3.6 4 Sudeste 10 Sudeste 0 -- -- 59
2020-01-12 09:00:00 2.8 2 Este 6 Sudeste 0 -- -- 66
2020-01-12 08:00:00 2 4 Sudoeste 9 Este 0 -- -- 70
2020-01-12 07:00:00 2.9 4 Este 9 Este 0 -- -- 71
2020-01-12 06:00:00 3.2 3 Este 6 Este 0 -- -- 68
2020-01-12 05:00:00 3.3 4 Nordeste 9 Este 0 -- -- 69
2020-01-12 04:00:00 3.6 0 Calma 8 Sudeste 0 -- -- 73
2020-01-12 03:00:00 4.1 0 Calma 9 Este 0 -- -- 72
2020-01-12 02:00:00 4.6 7 Sudeste 12 Sudeste 0 -- -- 71
2020-01-12 01:00:00 4.8 6 Sudeste 8 Sudeste 0 -- -- 71
2020-01-12 00:00:00 5.1 3 Este 6 Oeste 0 -- -- 68
2020-01-11 23:00:00 5.3 3 Nordeste 9 Sudoeste 0 -- -- 72
2020-01-11 22:00:00 5.3 6 Oeste 9 Oeste 0 -- -- 73
2020-01-11 21:00:00 5.9 0 Calma 9 Oeste 0 -- -- 72
2020-01-11 20:00:00 5.7 9 Oeste 13 Sudoeste 0 -- -- 69
2020-01-11 19:00:00 6.5 10 Sudoeste 14 Sudoeste 0 -- -- 68
2020-01-11 18:00:00 7.7 6 Oeste 8 Oeste 0 -- -- 67
2020-01-11 17:00:00 10.5 4 Sudoeste 16 Oeste 0 -- -- 60
2020-01-11 16:00:00 10.9 8 Oeste 16 Oeste 0 -- -- 56
2020-01-11 15:00:00 10.7 0 Calma 9 Oeste 0 -- -- 62
2020-01-11 14:00:00 8.6 5 Sudoeste 12 Sudoeste 0 -- -- 73
2020-01-11 13:00:00 5.7 0 Calma 12 Oeste 0 -- -- 81
2020-01-11 12:00:00 5 7 Oeste 12 Oeste 0 -- -- 82
2020-01-11 11:00:00 4.5 5 Oeste 11 Sudeste 0 -- -- 83
2020-01-11 10:00:00 2.8 5 Sur 10 Sudeste 0 -- -- 79
2020-01-11 09:00:00 1.4 3 Este 10 Sur 0 -- -- 81
2020-01-11 08:00:00 1.9 4 Sudoeste 14 Oeste 0 -- -- 81
2020-01-11 07:00:00 2.2 6 Sudeste 13 Sudeste 0 -- -- 79
2020-01-11 06:00:00 1.7 5 Sudeste 16 Sudeste 0 -- -- 84
2020-01-11 05:00:00 1.4 5 Este 9 Sudeste 0 -- -- 88
2020-01-11 04:00:00 1.7 2 Sudeste 8 Oeste 0 -- -- 89
2020-01-11 03:00:00 1.5 4 Oeste 9 Sudeste 0 -- -- 92
2020-01-11 02:00:00 1.8 6 Este 9 Este 0 -- -- 91
2020-01-11 01:00:00 1.9 0 Calma 9 Este 0 -- -- 92
2020-01-11 00:00:00 2.4 6 Este 10 Este 0 -- -- 95
2020-01-10 23:00:00 2.8 2 Sur 6 Sudeste 0 -- -- 96
2020-01-10 22:00:00 3 0 Calma 10 Norte 0 -- -- 97
2020-01-10 21:00:00 3 8 Noroeste 12 Norte 0 -- -- 95
2020-01-10 20:00:00 3.6 0 Calma 9 Noroeste 0 -- -- 94
2020-01-10 19:00:00 3.8 6 Noroeste 12 Norte 0 -- -- 92
2020-01-10 18:00:00 4.6 9 Nordeste 12 Nordeste 0 -- -- 88
2020-01-10 17:00:00 7 5 Norte 11 Nordeste 0 -- -- 84
2020-01-10 16:00:00 6.8 4 Nordeste 10 Este 0 -- -- 89
2020-01-10 15:00:00 6.5 5 Este 9 Este 0 -- -- 86
2020-01-10 14:00:00 6 3 Norte 11 Noroeste 0 -- -- 87
2020-01-10 13:00:00 5.8 3 Norte 12 Noroeste 0 -- -- 92
2020-01-10 12:00:00 5 5 Nordeste 11 Norte 0 -- -- 93
2020-01-10 11:00:00 4.9 7 Noroeste 12 Noroeste 0 -- -- 96
2020-01-10 10:00:00 3.9 4 Norte 7 Nordeste 0 -- -- 97
2020-01-10 09:00:00 2.8 3 Noroeste 6 Oeste 0 -- -- 96
2020-01-10 08:00:00 2.5 3 Oeste 13 Norte 0.2 -- -- 96
2020-01-10 07:00:00 3.3 5 Norte 12 Norte 0.2 -- -- 94
2020-01-10 06:00:00 3.1 0 Calma 13 Noroeste 0 -- -- 93
2020-01-10 05:00:00 3.2 5 Oeste 9 Oeste 0 -- -- 94
2020-01-10 04:00:00 3.3 0 Calma 5 Sudoeste 0 -- -- 93
2020-01-10 03:00:00 3.1 5 Oeste 20 Oeste 0.4 -- -- 94
2020-01-10 02:00:00 3.3 13 Oeste 27 Oeste 0 -- -- 93
2020-01-10 01:00:00 3.7 18 Oeste 33 Sudoeste 0.4 -- -- 91
2020-01-10 00:00:00 4.1 22 Sudoeste 33 Sudoeste 0 -- -- 91
2020-01-09 23:00:00 4.2 18 Sudoeste 43 Sudoeste 0.2 -- -- 91
2020-01-09 22:00:00 4.4 17 Sudoeste 40 Oeste 0 -- -- 90
2020-01-09 21:00:00 4.5 21 Sudoeste 35 Sudoeste 0.4 -- -- 89
2020-01-09 20:00:00 5.2 26 Sudoeste 44 Sudoeste 0 -- -- 81
2020-01-09 19:00:00 5.5 25 Sudoeste 40 Oeste 0 -- -- 82
2020-01-09 18:00:00 5.7 18 Sudoeste 36 Oeste 0 -- -- 85
2020-01-09 17:00:00 6.2 20 Oeste 41 Oeste 0.2 -- -- 89
2020-01-09 16:00:00 6.7 27 Oeste 56 Oeste 0 -- -- 90
2020-01-09 15:00:00 8.3 35 Oeste 90 Oeste 2.2 -- -- 87
2020-01-09 14:00:00 12.4 50 Sudoeste 83 Sudoeste 0 -- -- 68
2020-01-09 13:00:00 12.7 52 Sudoeste 83 Sudoeste 0 -- -- 74
2020-01-09 12:00:00 12.7 41 Sudoeste 65 Sudoeste 0 -- -- 76
2020-01-09 11:00:00 11.7 31 Sudoeste 61 Sudoeste 0 -- -- 79
2020-01-09 10:00:00 11.4 27 Sudoeste 57 Sudoeste 0 -- -- 79
2020-01-09 09:00:00 11 37 Sudoeste 57 Sudoeste 0 -- -- 82
2020-01-09 08:00:00 10.9 33 Sudoeste 51 Sudoeste 0 -- -- 86
2020-01-09 07:00:00 11.1 30 Sudoeste 45 Sudoeste 0 -- -- 86
2020-01-09 06:00:00 11.1 19 Sudoeste 32 Sudoeste 0 -- -- 87
2020-01-09 05:00:00 10.7 15 Sur 27 Sur 0 -- -- 88
2020-01-09 04:00:00 10.4 15 Sudoeste 27 Sudoeste 0 -- -- 92
2020-01-09 03:00:00 11.1 12 Sudoeste 26 Sudoeste 0 -- -- 86
2020-01-09 02:00:00 11 14 Sudoeste 22 Sudoeste 0 -- -- 88
2020-01-09 01:00:00 10.8 11 Sudoeste 18 Sudoeste 0 -- -- 88
2020-01-09 00:00:00 10.9 3 Sudoeste 23 Sudoeste 0 -- -- 85
2020-01-08 23:00:00 11.1 8 Sudoeste 22 Sudoeste 0 -- -- 85
2020-01-08 22:00:00 11.4 15 Sudoeste 21 Sur 0 -- -- 83
2020-01-08 21:00:00 11.4 12 Sudoeste 19 Sudoeste 0 -- -- 83
2020-01-08 20:00:00 11.6 10 Sudoeste 17 Sudoeste 0 -- -- 82
2020-01-08 19:00:00 11.1 15 Sudoeste 20 Sudoeste 0 -- -- 83
2020-01-08 18:00:00 11.6 14 Sudoeste 18 Sudoeste 0 -- -- 77
2020-01-08 17:00:00 15 7 Sudoeste 15 Sudoeste 0 -- -- 66
2020-01-08 16:00:00 15.4 11 Sudoeste 15 Sudoeste 0 -- -- 62
2020-01-08 15:00:00 15 4 Este 7 Sudeste 0 -- -- 54
2020-01-08 14:00:00 13.9 3 Sudeste 14 Oeste 0 -- -- 51
2020-01-08 13:00:00 12.8 5 Oeste 14 Sudoeste 0 -- -- 47
2020-01-08 12:00:00 11.8 5 Sudoeste 9 Sudoeste 0 -- -- 49
2020-01-08 11:00:00 10.8 0 Calma 6 Nordeste 0 -- -- 41
2020-01-08 10:00:00 9.1 3 Este 6 Este 0 -- -- 43
2020-01-08 09:00:00 7.8 0 Calma 4 Este 0 -- -- 43
2020-01-08 08:00:00 7.7 0 Calma 4 Oeste 0 -- -- 47
2020-01-08 07:00:00 7.8 0 Calma 7 Noroeste 0 -- -- 45
2020-01-08 06:00:00 7.2 6 Oeste 18 Oeste 0 -- -- 48
2020-01-08 05:00:00 7.6 4 Oeste 10 Sudoeste 0 -- -- 46
2020-01-08 04:00:00 8.1 0 Calma 6 Este 0 -- -- 42
2020-01-08 03:00:00 7.9 2 Este 6 Este 0 -- -- 43
2020-01-08 02:00:00 8.5 3 Oeste 9 Oeste 0 -- -- 43
2020-01-08 01:00:00 7 10 Noroeste 13 Oeste 0 -- -- 49
2020-01-08 00:00:00 9.1 4 Sudeste 9 Este 0 -- -- 42
2020-01-07 23:00:00 9.1 0 Calma 7 Este 0 -- -- 44
2020-01-07 22:00:00 9.3 0 Calma 7 Oeste 0 -- -- 39
2020-01-07 21:00:00 9.4 3 Oeste 8 Oeste 0 -- -- 38
2020-01-07 20:00:00 9.8 0 Calma 10 Oeste 0 -- -- 46
2020-01-07 19:00:00 9.2 11 Sudoeste 16 Oeste 0 -- -- 46
2020-01-07 18:00:00 10.8 9 Oeste 14 Oeste 0 -- -- 47
2020-01-07 17:00:00 13.6 7 Oeste 13 Oeste 0 -- -- 42
2020-01-07 16:00:00 15.5 5 Sudoeste 13 Oeste 0 -- -- 39
2020-01-07 15:00:00 13.7 9 Oeste 16 Oeste 0 -- -- 41
2020-01-07 14:00:00 12.6 9 Oeste 14 Oeste 0 -- -- 47
2020-01-07 13:00:00 11.8 6 Sudoeste 11 Sudoeste 0 -- -- 49
2020-01-07 12:00:00 10.5 0 Calma 6 Sudeste 0 -- -- 53
2020-01-07 11:00:00 8.2 3 Este 8 Nordeste 0 -- -- 46
2020-01-07 10:00:00 5.5 4 Este 8 Sudeste 0 -- -- 48
2020-01-07 09:00:00 3.9 6 Oeste 9 Oeste 0 -- -- 57
2020-01-07 08:00:00 4.1 0 Calma 12 Oeste 0 -- -- 58
2020-01-07 07:00:00 3.7 5 Oeste 13 Oeste 0 -- -- 58
2020-01-07 06:00:00 4 0 Calma 7 Sudeste 0 -- -- 56
2020-01-07 05:00:00 2.7 7 Oeste 9 Oeste 0 -- -- 70
2020-01-07 04:00:00 3.2 4 Este 7 Noroeste 0 -- -- 64
2020-01-07 03:00:00 2.8 7 Noroeste 11 Oeste 0 -- -- 73
2020-01-07 02:00:00 3.3 3 Sudoeste 10 Oeste 0 -- -- 72
2020-01-07 01:00:00 3.8 3 Sudoeste 8 Oeste 0 -- -- 69
2020-01-07 00:00:00 3.4 6 Oeste 8 Oeste 0 -- -- 74
2020-01-06 23:00:00 4.5 0 Calma 6 Este 0 -- -- 68
2020-01-06 22:00:00 5 0 Calma 8 Oeste 0 -- -- 68
2020-01-06 21:00:00 5.7 0 Calma 8 Este 0 -- -- 65
2020-01-06 20:00:00 6.4 2 Este 6 Nordeste 0 -- -- 65
2020-01-06 19:00:00 6.8 2 Sudoeste 17 Oeste 0 -- -- 62
2020-01-06 18:00:00 6.8 8 Oeste 13 Noroeste 0 -- -- 66
2020-01-06 17:00:00 9.5 9 Oeste 14 Oeste 0 -- -- 60
2020-01-06 16:00:00 9.9 6 Este 13 Este 0 -- -- 55
2020-01-06 15:00:00 9.7 13 Sudoeste 19 Sudoeste 0 -- -- 55
2020-01-06 14:00:00 8.9 12 Sudoeste 21 Sudoeste 0 -- -- 57
2020-01-06 13:00:00 8.6 5 Oeste 14 Oeste 0 -- -- 58
2020-01-06 12:00:00 7.9 5 Sur 13 Sudoeste 0 -- -- 64
2020-01-06 11:00:00 7.2 3 Sur 19 Oeste 0 -- -- 64
2020-01-06 10:00:00 5.8 9 Este 14 Este 0 -- -- 60